Time;durP1;ratioP1;P1;durP2;ratioP2;P2;SDS_P1;SDS_P2;PMS_P1;PMS_P2;Temp;Humidity;BMP_temperature;BMP_pressure;BME280_temperature;BME280_humidity;BME280_pressure;Samples;Min_cycle;Max_cycle;Signal;HPM_P1;HPM_P2
2023/12/02 00:00:07;;;;;;;19.10;10.80;;;;;;;6.89;100.00;97634.84;5051244;28;20208;-59
2023/12/02 00:02:33;;;;;;;15.13;10.68;;;;;;;7.19;100.00;97685.09;5054875;28;20178;-59
2023/12/02 00:04:58;;;;;;;16.67;10.07;;;;;;;7.33;100.00;97720.16;5054845;28;20180;-59
2023/12/02 00:07:24;;;;;;;12.90;10.27;;;;;;;7.00;100.00;97666.63;5054791;28;20614;-59
2023/12/02 00:09:49;;;;;;;14.35;10.50;;;;;;;7.02;100.00;97651.09;5054442;28;20269;-59
2023/12/02 00:12:15;;;;;;;16.60;10.98;;;;;;;6.91;100.00;97617.56;5054683;28;20178;-59
2023/12/02 00:14:40;;;;;;;19.40;11.23;;;;;;;7.23;100.00;97663.34;5054636;28;20632;-59
2023/12/02 00:17:06;;;;;;;17.77;12.20;;;;;;;7.13;100.00;97640.91;5054395;28;20174;-59
2023/12/02 00:19:31;;;;;;;16.80;11.73;;;;;;;7.17;100.00;97650.91;5054514;28;20200;-59
2023/12/02 00:21:57;;;;;;;16.50;10.95;;;;;;;7.08;100.00;97628.38;5054395;28;20679;-59
2023/12/02 00:24:22;;;;;;;16.75;11.65;;;;;;;7.17;100.00;97634.66;5054449;28;20629;-60
2023/12/02 00:26:47;;;;;;;15.30;12.32;;;;;;;7.08;100.00;97630.13;5054211;28;20251;-60
2023/12/02 00:29:13;;;;;;;17.65;11.45;;;;;;;6.87;100.00;97575.81;5054225;28;20173;-59
2023/12/02 00:31:38;;;;;;;17.85;12.93;;;;;;;7.03;100.00;97612.44;5054307;28;20177;-59
2023/12/02 00:34:04;;;;;;;14.93;10.93;;;;;;;7.05;100.00;97615.72;5054024;28;20170;-59
2023/12/02 00:36:32;;;;;;;14.35;11.07;;;;;;;7.46;100.00;97660.06;5051838;28;20224;-59
2023/12/02 00:38:57;;;;;;;15.40;10.80;;;;;;;7.52;100.00;97671.69;5051652;28;20703;-59
2023/12/02 00:41:23;;;;;;;23.45;12.93;;;;;;;7.27;100.00;97633.09;5051223;28;20204;-59
2023/12/02 00:43:48;;;;;;;18.33;12.45;;;;;;;7.50;100.00;97658.91;5051515;28;20208;-59
2023/12/02 00:46:14;;;;;;;16.33;12.10;;;;;;;7.03;100.00;97609.84;5051624;28;20194;-59
2023/12/02 00:48:39;;;;;;;19.38;10.45;;;;;;;7.16;100.00;97618.38;5051716;28;20190;-59
2023/12/02 00:51:05;;;;;;;15.77;10.75;;;;;;;7.11;100.00;97615.31;5051521;28;20239;-59
2023/12/02 00:53:30;;;;;;;15.85;11.43;;;;;;;7.49;100.00;97666.75;5051691;28;20567;-59
2023/12/02 00:55:57;;;;;;;19.45;10.43;;;;;;;7.48;100.00;97660.78;5051369;28;20189;-59
2023/12/02 00:58:22;;;;;;;15.65;10.90;;;;;;;7.57;100.00;97665.28;5051299;28;20225;-59
2023/12/02 01:00:48;;;;;;;16.50;10.63;;;;;;;7.09;100.00;97573.44;5051224;28;20286;-60
2023/12/02 01:03:13;;;;;;;16.30;11.30;;;;;;;7.31;100.00;97612.22;5051159;28;20660;-59
2023/12/02 01:05:39;;;;;;;18.60;11.45;;;;;;;7.61;100.00;97671.88;5051183;28;20186;-59
2023/12/02 01:08:04;;;;;;;18.50;11.65;;;;;;;7.38;100.00;97625.47;5070960;28;20188;-59
2023/12/02 01:10:30;;;;;;;16.83;11.85;;;;;;;7.28;100.00;97603.88;5071328;28;20192;-59
2023/12/02 01:12:55;;;;;;;19.17;13.65;;;;;;;7.01;100.00;97546.59;5070716;28;20177;-59
2023/12/02 01:15:20;;;;;;;16.90;12.10;;;;;;;7.41;100.00;97644.09;5071113;28;20279;-58
2023/12/02 01:17:46;;;;;;;22.02;13.07;;;;;;;7.62;100.00;97647.78;5070657;28;20296;-59
2023/12/02 01:20:11;;;;;;;16.58;11.80;;;;;;;7.64;100.00;97634.81;5070889;28;20211;-60
2023/12/02 01:22:37;;;;;;;18.23;11.73;;;;;;;7.41;100.00;97605.50;5070857;28;20210;-59
2023/12/02 01:25:03;;;;;;;14.93;11.40;;;;;;;7.52;100.00;97641.63;5070948;28;20184;-59
2023/12/02 01:27:28;;;;;;;23.38;12.93;;;;;;;7.41;100.00;97622.69;5070890;28;20216;-59
2023/12/02 01:29:53;;;;;;;22.17;12.65;;;;;;;7.49;100.00;97630.72;5070770;28;20208;-59
2023/12/02 01:32:19;;;;;;;15.00;10.90;;;;;;;7.01;100.00;97550.00;5070746;28;20188;-59
2023/12/02 01:34:46;;;;;;;15.38;11.35;;;;;;;7.44;100.00;97612.19;5070665;28;20224;-59
2023/12/02 01:37:12;;;;;;;17.92;11.20;;;;;;;7.34;100.00;97596.56;5070590;28;20188;-61
2023/12/02 01:39:37;;;;;;;13.82;10.27;;;;;;;6.92;100.00;97532.63;5057368;28;20214;-60
2023/12/02 01:42:03;;;;;;;17.17;11.48;;;;;;;7.06;100.00;97563.34;5053002;28;20178;-59
2023/12/02 01:44:28;;;;;;;13.70;10.35;;;;;;;7.20;100.00;97572.69;5052931;28;20169;-59
2023/12/02 01:46:54;;;;;;;13.90;10.30;;;;;;;6.94;100.00;97561.59;5053088;28;20170;-59
2023/12/02 01:49:20;;;;;;;15.85;9.98;;;;;;;7.06;100.00;97576.19;5052897;28;20184;-59
2023/12/02 01:51:46;;;;;;;13.68;9.15;;;;;;;7.37;100.00;97647.81;5052542;28;20228;-59
2023/12/02 01:54:11;;;;;;;13.55;8.68;;;;;;;6.91;100.00;97572.09;5052763;28;20181;-60
2023/12/02 01:56:37;;;;;;;13.07;9.57;;;;;;;7.10;100.00;97607.72;5052722;28;20205;-59
2023/12/02 01:59:03;;;;;;;13.30;9.90;;;;;;;6.95;100.00;97576.13;5052626;28;20227;-59
2023/12/02 02:01:29;;;;;;;14.05;9.68;;;;;;;7.36;100.00;97646.19;5052410;28;20185;-59
2023/12/02 02:03:56;;;;;;;14.13;9.68;;;;;;;7.28;100.00;97647.63;5052309;28;20177;-59
2023/12/02 02:06:22;;;;;;;13.75;10.93;;;;;;;7.32;100.00;97644.72;5052561;28;20204;-59
2023/12/02 02:08:47;;;;;;;14.23;10.60;;;;;;;7.25;100.00;97627.22;5052503;28;20189;-61
2023/12/02 02:11:13;;;;;;;17.00;12.02;;;;;;;7.15;100.00;97609.03;5052439;28;20182;-59
2023/12/02 02:13:38;;;;;;;13.27;10.60;;;;;;;7.20;100.00;97637.84;5052467;28;20182;-59
2023/12/02 02:16:04;;;;;;;18.23;11.45;;;;;;;7.30;100.00;97631.16;5052435;28;20612;-59
2023/12/02 02:18:30;;;;;;;11.57;9.50;;;;;;;6.76;100.00;97555.13;5052268;28;20209;-59
2023/12/02 02:20:56;;;;;;;14.93;10.63;;;;;;;6.94;100.00;97559.03;5052289;28;20178;-59
2023/12/02 02:23:23;;;;;;;18.05;11.48;;;;;;;6.97;100.00;97579.41;5051823;28;20174;-59
2023/12/02 02:25:52;;;;;;;18.35;11.35;;;;;;;7.32;100.00;97639.59;5051549;28;20670;-59
2023/12/02 02:28:22;;;;;;;17.50;10.57;;;;;;;7.34;100.00;97637.72;5052367;28;20194;-59
2023/12/02 02:30:47;;;;;;;16.30;11.90;;;;;;;6.85;100.00;97546.81;5051788;28;20728;-59
2023/12/02 02:33:13;;;;;;;14.63;11.27;;;;;;;7.04;100.00;97578.06;5052090;28;20315;-59
2023/12/02 02:35:38;;;;;;;14.70;11.23;;;;;;;7.28;100.00;97619.31;5052053;28;20632;-59
2023/12/02 02:38:04;;;;;;;18.27;11.10;;;;;;;7.35;100.00;97612.81;5051918;28;20503;-59
2023/12/02 02:40:29;;;;;;;15.40;11.57;;;;;;;7.00;100.00;97540.63;5051849;28;20264;-60
2023/12/02 02:42:56;;;;;;;15.63;10.68;;;;;;;7.34;100.00;97582.88;5051643;28;20184;-59
2023/12/02 02:45:23;;;;;;;17.45;11.15;;;;;;;7.14;100.00;97540.50;5051903;28;20174;-59
2023/12/02 02:47:49;;;;;;;11.35;9.27;;;;;;;6.96;100.00;97508.34;5051697;28;20331;-59
2023/12/02 02:50:14;;;;;;;13.48;9.73;;;;;;;7.47;100.00;97586.25;5051687;28;20189;-59
2023/12/02 02:52:40;;;;;;;10.82;7.80;;;;;;;7.48;100.00;97583.56;5051744;28;20182;-59
2023/12/02 02:55:05;;;;;;;12.20;8.43;;;;;;;6.94;100.00;97502.47;5049059;28;20182;-59
2023/12/02 02:57:31;;;;;;;13.25;8.57;;;;;;;7.19;100.00;97551.31;5049193;28;20209;-59
2023/12/02 02:59:56;;;;;;;11.02;8.18;;;;;;;6.95;100.00;97501.56;5049163;28;20209;-59
2023/12/02 03:02:23;;;;;;;15.15;9.18;;;;;;;7.05;100.00;97507.69;5049199;28;20182;-59
2023/12/02 03:04:48;;;;;;;16.52;9.60;;;;;;;7.54;100.00;97578.00;5049031;28;20239;-60
2023/12/02 03:07:14;;;;;;;15.90;9.40;;;;;;;7.51;100.00;97562.75;5049130;28;20207;-59
2023/12/02 03:09:39;;;;;;;15.40;10.10;;;;;;;7.52;100.00;97573.88;5049067;28;20194;-59
2023/12/02 03:12:05;;;;;;;16.73;10.50;;;;;;;7.00;100.00;97499.47;5049046;28;20174;-59
2023/12/02 03:14:31;;;;;;;14.15;9.48;;;;;;;7.53;100.00;97594.38;5048781;28;20186;-59
2023/12/02 03:16:56;;;;;;;15.65;10.77;;;;;;;6.97;100.00;97486.84;5049095;28;20272;-60
2023/12/02 03:19:22;;;;;;;20.75;11.85;;;;;;;6.99;100.00;97499.59;5048558;28;20804;-61
2023/12/02 03:21:47;;;;;;;19.30;12.10;;;;;;;7.32;100.00;97551.28;5046007;28;20664;-60
2023/12/02 03:24:12;;;;;;;14.13;10.50;;;;;;;6.90;100.00;97488.19;5048959;28;20178;-60
2023/12/02 03:26:38;;;;;;;15.98;10.07;;;;;;;7.51;100.00;97583.34;5048692;28;20194;-59
2023/12/02 03:29:04;;;;;;;19.17;11.55;;;;;;;7.53;100.00;97572.97;5048840;28;20194;-59
2023/12/02 03:31:29;;;;;;;14.55;11.52;;;;;;;7.01;100.00;97475.44;5048881;28;20221;-59
2023/12/02 03:33:55;;;;;;;15.77;11.20;;;;;;;7.28;100.00;97530.09;5048883;28;20664;-59
2023/12/02 03:36:20;;;;;;;18.13;11.07;;;;;;;7.35;100.00;97520.19;5032885;28;20197;-59
2023/12/02 03:38:46;;;;;;;23.95;11.20;;;;;;;7.47;100.00;97535.59;5032968;28;20811;-59
2023/12/02 03:41:11;;;;;;;19.85;12.20;;;;;;;7.03;100.00;97470.16;5032905;28;20190;-59
2023/12/02 03:43:36;;;;;;;18.95;12.43;;;;;;;7.33;100.00;97502.28;5033228;28;20668;-59
2023/12/02 03:46:02;;;;;;;17.08;11.20;;;;;;;7.35;100.00;97513.28;5032836;28;20213;-59
2023/12/02 03:48:28;;;;;;;17.85;11.40;;;;;;;7.27;100.00;97518.16;5032858;28;20179;-59
2023/12/02 03:50:54;;;;;;;20.42;13.07;;;;;;;7.43;100.00;97538.50;5032706;28;20198;-59
2023/12/02 03:53:19;;;;;;;22.92;15.18;;;;;;;7.61;100.00;97584.38;5032728;28;20848;-59
2023/12/02 03:55:45;;;;;;;23.42;16.40;;;;;;;7.56;100.00;97589.00;5032361;28;20270;-59
2023/12/02 03:58:11;;;;;;;24.23;16.92;;;;;;;7.08;100.00;97507.50;5012659;28;20219;-59
2023/12/02 04:00:36;;;;;;;23.65;17.00;;;;;;;7.38;100.00;97545.69;5012684;28;20222;-59
2023/12/02 04:03:02;;;;;;;22.88;16.33;;;;;;;7.56;100.00;97580.44;5012230;28;20186;-59
2023/12/02 04:05:28;;;;;;;26.25;17.67;;;;;;;7.19;100.00;97502.44;5012052;28;20221;-58
2023/12/02 04:07:53;;;;;;;28.13;16.88;;;;;;;7.50;100.00;97555.97;5039171;28;20182;-58
2023/12/02 04:10:19;;;;;;;24.75;18.27;;;;;;;7.59;100.00;97568.22;5051947;28;20189;-59
2023/12/02 04:12:44;;;;;;;25.55;15.65;;;;;;;7.47;100.00;97551.03;5051784;28;20276;-58
2023/12/02 04:15:10;;;;;;;30.88;20.05;;;;;;;7.15;100.00;97534.44;5051825;28;20189;-59
2023/12/02 04:17:36;;;;;;;33.30;21.77;;;;;;;6.69;100.00;97465.69;5051513;28;20646;-60
2023/12/02 04:20:08;;;;;;;27.50;20.10;;;;;;;6.93;100.00;97513.69;5051622;28;20282;-59
2023/12/02 04:22:34;;;;;;;31.08;18.95;;;;;;;6.38;100.00;97420.69;5049743;28;20182;-58
2023/12/02 04:24:59;;;;;;;31.48;18.85;;;;;;;6.83;100.00;97492.09;5051648;28;20185;-58
2023/12/02 04:27:25;;;;;;;23.45;16.67;;;;;;;6.62;100.00;97473.00;5052009;28;20622;-59
2023/12/02 04:29:50;;;;;;;28.95;19.33;;;;;;;6.32;100.00;97428.81;5053605;28;20549;-59
2023/12/02 04:32:16;;;;;;;30.08;18.85;;;;;;;6.80;100.00;97494.88;5054342;28;20185;-59
2023/12/02 04:34:41;;;;;;;34.03;18.42;;;;;;;6.73;100.00;97480.81;5054258;28;20724;-58
2023/12/02 04:37:07;;;;;;;21.92;15.40;;;;;;;7.03;100.00;97516.44;5054313;28;20577;-58
2023/12/02 04:39:33;;;;;;;24.50;16.75;;;;;;;7.33;100.00;97552.91;5054216;28;20209;-58
2023/12/02 04:41:58;;;;;;;23.20;16.25;;;;;;;7.30;100.00;97553.97;5054106;28;20230;-58
2023/12/02 04:44:24;;;;;;;21.63;16.35;;;;;;;6.28;100.00;97426.53;5054077;28;20186;-59
2023/12/02 04:46:50;;;;;;;21.02;15.43;;;;;;;6.66;100.00;97492.44;5050736;28;20189;-59
2023/12/02 04:49:15;;;;;;;20.55;14.55;;;;;;;6.98;100.00;97539.06;5051649;28;20275;-58
2023/12/02 04:51:40;;;;;;;22.67;14.15;;;;;;;6.65;100.00;97493.34;5051513;28;20192;-58
2023/12/02 04:54:06;;;;;;;20.00;13.35;;;;;;;6.49;100.00;97461.91;5071336;28;20686;-58
2023/12/02 04:56:31;;;;;;;21.88;17.33;;;;;;;6.48;100.00;97447.41;5071658;28;20309;-58
2023/12/02 04:58:57;;;;;;;24.73;15.50;;;;;;;6.89;100.00;97519.97;5071542;28;20224;-58
2023/12/02 05:01:22;;;;;;;27.30;16.10;;;;;;;6.53;100.00;97471.03;5071287;28;20181;-59
2023/12/02 05:03:48;;;;;;;35.15;17.55;;;;;;;6.84;100.00;97500.63;5071495;28;20194;-60
2023/12/02 05:06:15;;;;;;;24.60;17.05;;;;;;;6.77;100.00;97492.50;5031111;28;20187;-59
2023/12/02 05:08:40;;;;;;;21.02;15.10;;;;;;;6.57;100.00;97475.06;5031297;28;20537;-59
2023/12/02 05:11:07;;;;;;;21.25;15.52;;;;;;;6.93;100.00;97569.44;5031110;28;20185;-59
2023/12/02 05:13:32;;;;;;;21.08;15.48;;;;;;;6.94;100.00;97565.94;5031143;28;20222;-59
2023/12/02 05:15:57;;;;;;;20.45;14.63;;;;;;;6.33;100.00;97466.41;5031153;28;20186;-59
2023/12/02 05:18:23;;;;;;;25.27;15.35;;;;;;;6.51;100.00;97490.88;5016274;28;20315;-59
2023/12/02 05:20:49;;;;;;;23.55;15.00;;;;;;;6.84;100.00;97550.31;5011452;28;20192;-59
2023/12/02 05:23:14;;;;;;;24.25;15.50;;;;;;;6.75;100.00;97539.84;5011179;28;20191;-59
2023/12/02 05:25:40;;;;;;;22.23;14.75;;;;;;;6.21;100.00;97456.13;4996694;28;20184;-59
2023/12/02 05:28:09;;;;;;;17.30;13.02;;;;;;;6.40;100.00;97479.69;4991563;28;20277;-59
2023/12/02 05:30:34;;;;;;;23.05;15.07;;;;;;;6.26;100.00;97462.63;4991511;28;20228;-59
2023/12/02 05:33:00;;;;;;;18.52;13.32;;;;;;;6.27;100.00;97455.72;4991514;28;20529;-60
2023/12/02 05:35:25;;;;;;;15.48;11.88;;;;;;;6.50;100.00;97478.13;4971848;28;20192;-59
2023/12/02 05:37:51;;;;;;;18.67;11.88;;;;;;;6.57;100.00;97508.47;4971836;28;20553;-59
2023/12/02 05:40:17;;;;;;;13.73;11.60;;;;;;;6.87;100.00;97539.00;4971966;28;20251;-59
2023/12/02 05:42:43;;;;;;;16.42;11.50;;;;;;;6.44;100.00;97468.25;4978252;28;20189;-59
2023/12/02 05:45:09;;;;;;;18.20;13.15;;;;;;;6.77;100.00;97505.34;5030645;28;20185;-59
2023/12/02 05:47:34;;;;;;;20.90;12.25;;;;;;;6.44;100.00;97463.97;5030626;28;20562;-59
2023/12/02 05:50:00;;;;;;;19.23;12.55;;;;;;;6.79;100.00;97534.38;5030609;28;20174;-60
2023/12/02 05:52:25;;;;;;;20.55;12.57;;;;;;;6.70;100.00;97529.84;5030487;28;20545;-59
2023/12/02 05:54:51;;;;;;;18.42;12.05;;;;;;;6.37;100.00;97460.16;5030421;28;20186;-59
2023/12/02 05:57:16;;;;;;;19.90;13.93;;;;;;;6.60;100.00;97490.28;5030097;28;20210;-59
2023/12/02 05:59:42;;;;;;;17.23;14.00;;;;;;;6.62;100.00;97483.28;5029579;28;20216;-59
2023/12/02 06:02:07;;;;;;;20.20;13.52;;;;;;;6.62;100.00;97459.31;5030379;28;20189;-59
2023/12/02 06:04:33;;;;;;;27.02;18.73;;;;;;;6.58;100.00;97450.19;5030556;28;20618;-59
2023/12/02 06:06:59;;;;;;;24.50;18.95;;;;;;;6.43;100.00;97408.38;5030156;28;20289;-59
2023/12/02 06:09:24;;;;;;;25.80;16.98;;;;;;;7.17;100.00;97506.84;5030113;28;20191;-60
2023/12/02 06:11:50;;;;;;;25.63;18.48;;;;;;;7.03;100.00;97525.00;5031391;28;20630;-59
2023/12/02 06:14:15;;;;;;;26.15;17.88;;;;;;;7.13;100.00;97531.16;5049809;28;20186;-59
2023/12/02 06:16:40;;;;;;;23.67;17.58;;;;;;;6.89;100.00;97486.56;5069625;28;20208;-59
2023/12/02 06:19:06;;;;;;;20.40;16.48;;;;;;;7.21;100.00;97533.19;5069597;28;20224;-59
2023/12/02 06:21:31;;;;;;;18.05;15.05;;;;;;;7.03;100.00;97489.00;5069749;28;20193;-60
2023/12/02 06:23:57;;;;;;;19.05;14.15;;;;;;;7.05;100.00;97471.69;5069766;28;20184;-60
2023/12/02 06:26:22;;;;;;;20.05;15.73;;;;;;;6.98;100.00;97449.06;5069977;28;20729;-60
2023/12/02 06:28:49;;;;;;;20.60;14.18;;;;;;;7.53;100.00;97535.19;5069639;28;20193;-61
2023/12/02 06:31:16;;;;;;;20.90;13.10;;;;;;;7.07;100.00;97457.00;5069542;28;20204;-60
2023/12/02 06:33:41;;;;;;;15.55;11.85;;;;;;;7.12;100.00;97460.03;5029539;28;20186;-60
2023/12/02 06:36:08;;;;;;;13.15;10.65;;;;;;;7.75;100.00;97548.16;5029904;28;20199;-60
2023/12/02 06:38:36;;;;;;;25.02;14.25;;;;;;;7.50;100.00;97483.06;5028978;28;20668;-60
2023/12/02 06:41:02;;;;;;;40.33;20.95;;;;;;;7.66;100.00;97514.53;5029237;28;20194;-60
2023/12/02 06:43:28;;;;;;;46.38;24.45;;;;;;;7.94;100.00;97551.09;5029422;28;20186;-60
2023/12/02 06:45:54;;;;;;;39.55;23.95;;;;;;;7.75;100.00;97513.88;5029446;28;20316;-60
2023/12/02 06:48:19;;;;;;;63.65;31.55;;;;;;;7.83;100.00;97524.44;5029769;28;20196;-60
2023/12/02 06:50:44;;;;;;;51.35;30.10;;;;;;;7.69;100.00;97497.09;5029707;28;20539;-60
2023/12/02 06:53:13;;;;;;;50.30;29.17;;;;;;;7.74;100.00;97523.34;5029406;28;20225;-60
2023/12/02 06:55:39;;;;;;;41.58;27.88;;;;;;;7.59;100.00;97498.72;5029368;28;20245;-60
2023/12/02 06:58:04;;;;;;;42.70;26.73;;;;;;;7.48;100.00;97490.94;5022225;28;20194;-60
2023/12/02 07:00:30;;;;;;;42.80;26.35;;;;;;;7.34;100.00;97483.34;5028967;28;20187;-60
2023/12/02 07:02:55;;;;;;;39.40;26.38;;;;;;;7.28;100.00;97475.25;5029039;28;20661;-60
2023/12/02 07:05:21;;;;;;;41.90;25.85;;;;;;;7.92;100.00;97560.66;5028947;28;20200;-60
2023/12/02 07:07:47;;;;;;;42.90;27.05;;;;;;;7.39;100.00;97478.69;5028919;28;20261;-60
2023/12/02 07:10:13;;;;;;;47.05;29.48;;;;;;;7.72;100.00;97530.38;5031455;28;20218;-58
2023/12/02 07:12:38;;;;;;;39.35;27.75;;;;;;;7.32;100.00;97479.22;5051319;28;20209;-58
2023/12/02 07:15:06;;;;;;;47.30;28.42;;;;;;;7.58;100.00;97532.28;5051248;28;20205;-61
2023/12/02 07:17:32;;;;;;;48.60;34.95;;;;;;;7.92;100.00;97583.03;5049745;28;20427;-59
2023/12/02 07:20:00;;;;;;;47.25;31.00;;;;;;;7.34;100.00;97503.94;5028443;28;20226;-59
2023/12/02 07:22:26;;;;;;;41.10;30.35;;;;;;;7.67;100.00;97563.34;5028797;28;20234;-59
2023/12/02 07:24:52;;;;;;;45.72;32.88;;;;;;;7.90;100.00;97551.41;5028664;28;20679;-60
2023/12/02 07:27:18;;;;;;;60.85;41.17;;;;;;;7.93;100.00;97543.47;5028726;28;20183;-59
2023/12/02 07:29:44;;;;;;;62.42;40.03;;;;;;;7.58;100.00;97481.59;5028210;28;20198;-59
2023/12/02 07:32:09;;;;;;;63.28;39.53;;;;;;;7.96;100.00;97532.94;5028673;28;20576;-59
2023/12/02 07:34:35;;;;;;;58.28;39.42;;;;;;;8.27;100.00;97569.28;5028937;28;20191;-60
2023/12/02 07:37:00;;;;;;;52.80;35.47;;;;;;;7.96;100.00;97492.56;5028646;28;20532;-60
2023/12/02 07:39:26;;;;;;;60.38;38.45;;;;;;;8.34;100.00;97554.22;5028679;28;20209;-60
2023/12/02 07:41:51;;;;;;;62.30;38.13;;;;;;;8.30;100.00;97538.16;5028614;28;20181;-59
2023/12/02 07:44:17;;;;;;;60.42;38.60;;;;;;;8.32;100.00;97536.28;5028502;28;20229;-60
2023/12/02 07:46:43;;;;;;;67.03;41.10;;;;;;;8.22;100.00;97535.28;5028535;28;20277;-59
2023/12/02 07:49:08;;;;;;;60.08;39.72;;;;;;;8.21;100.00;97512.25;5028501;28;20265;-60
2023/12/02 07:51:34;;;;;;;59.67;43.47;;;;;;;7.99;100.00;97484.59;5045330;28;20201;-59
2023/12/02 07:53:59;;;;;;;61.55;41.80;;;;;;;8.05;100.00;97494.44;5050852;28;20605;-59
2023/12/02 07:56:25;;;;;;;59.38;38.85;;;;;;;8.56;100.00;97580.88;5050824;28;20709;-60
2023/12/02 07:58:50;;;;;;;68.80;39.67;;;;;;;8.10;100.00;97510.41;5050675;28;20201;-60
2023/12/02 08:01:16;;;;;;;61.20;39.22;;;;;;;8.39;100.00;97555.50;5050733;28;20636;-61
2023/12/02 08:03:41;;;;;;;62.28;39.25;;;;;;;8.40;100.00;97559.72;5050988;28;20272;-60
2023/12/02 08:06:07;;;;;;;48.55;33.05;;;;;;;8.20;100.00;97526.03;5050436;28;20640;-59
2023/12/02 08:08:33;;;;;;;61.38;34.40;;;;;;;8.59;100.00;97598.72;5050750;28;20178;-59
2023/12/02 08:10:58;;;;;;;47.13;31.63;;;;;;;8.34;100.00;97561.94;5050709;28;20236;-60
2023/12/02 08:13:24;;;;;;;45.33;32.10;;;;;;;8.48;100.00;97598.66;5050587;28;20186;-60
2023/12/02 08:15:49;;;;;;;65.78;37.95;;;;;;;8.26;100.00;97556.50;5050461;28;20174;-59
2023/12/02 08:18:18;;;;;;;60.78;38.85;;;;;;;8.24;100.00;97541.19;5050296;28;20225;-59
2023/12/02 08:20:44;;;;;;;55.40;36.28;;;;;;;8.16;100.00;97546.00;5049872;28;20229;-60
2023/12/02 08:23:09;;;;;;;60.95;35.38;;;;;;;8.54;100.00;97631.72;5054099;28;20213;-58
2023/12/02 08:25:35;;;;;;;56.40;34.92;;;;;;;8.43;100.00;97607.66;5054578;28;20191;-59
2023/12/02 08:28:00;;;;;;;69.13;39.72;;;;;;;8.01;100.00;97536.84;5031585;28;20186;-59
2023/12/02 08:30:26;;;;;;;63.13;37.10;;;;;;;8.34;100.00;97585.13;5051355;28;20247;-58
2023/12/02 08:32:51;;;;;;;53.88;34.00;;;;;;;8.27;100.00;97564.13;5051584;28;20286;-58
2023/12/02 08:35:17;;;;;;;52.72;32.13;;;;;;;8.13;100.00;97548.00;5051493;28;20675;-59
2023/12/02 08:37:43;;;;;;;46.80;31.10;;;;;;;8.34;100.00;97591.09;5051472;28;20551;-58
2023/12/02 08:40:08;;;;;;;51.97;32.47;;;;;;;8.48;100.00;97603.00;5051449;28;20213;-58
2023/12/02 08:42:34;;;;;;;45.35;31.40;;;;;;;8.50;100.00;97593.41;5051399;28;20190;-59
2023/12/02 08:44:59;;;;;;;52.42;33.55;;;;;;;8.38;100.00;97569.34;5051384;28;20230;-58
2023/12/02 08:47:24;;;;;;;54.50;33.67;;;;;;;7.99;100.00;97501.81;5017647;28;20289;-59
2023/12/02 08:49:50;;;;;;;49.85;32.75;;;;;;;8.53;100.00;97594.00;5011618;28;20191;-58
2023/12/02 08:52:15;;;;;;;55.60;32.60;;;;;;;8.63;100.00;97587.22;5019789;28;20228;-58
2023/12/02 08:54:41;;;;;;;46.75;33.00;;;;;;;8.70;100.00;97585.00;5023088;28;20201;-58
2023/12/02 08:57:06;;;;;;;51.70;33.00;;;;;;;8.75;100.00;97563.09;5031272;28;20216;-59
2023/12/02 08:59:32;;;;;;;61.70;35.42;;;;;;;8.35;100.00;97519.78;5059605;28;20598;-59
2023/12/02 09:01:57;;;;;;;59.65;35.63;;;;;;;8.36;100.00;97516.25;5058476;28;20178;-59
2023/12/02 09:04:23;;;;;;;56.60;40.70;;;;;;;8.22;100.00;97488.13;5053649;28;20242;-60
2023/12/02 09:06:48;;;;;;;61.45;41.20;;;;;;;8.77;100.00;97557.81;5053239;28;20185;-60
2023/12/02 09:09:14;;;;;;;62.58;42.67;;;;;;;8.78;100.00;97555.13;5053224;28;20189;-59
2023/12/02 09:11:41;;;;;;;65.18;42.50;;;;;;;8.26;100.00;97454.28;5053775;28;20216;-59
2023/12/02 09:14:06;;;;;;;67.35;39.85;;;;;;;8.91;100.00;97555.84;5052448;28;20214;-60
2023/12/02 09:16:32;;;;;;;70.20;44.28;;;;;;;8.54;100.00;97477.06;5053010;28;20263;-59
2023/12/02 09:18:58;;;;;;;70.45;44.92;;;;;;;9.00;100.00;97547.44;5053334;28;20644;-59
2023/12/02 09:21:33;;;;;;;66.32;43.28;;;;;;;9.02;100.00;97537.00;5053218;28;20196;-60
2023/12/02 09:24:04;;;;;;;66.38;42.58;;;;;;;8.62;100.00;97463.59;5053161;28;20319;-59
2023/12/02 09:26:41;;;;;;;85.35;52.83;;;;;;;8.90;100.00;97496.63;5052864;28;20177;-59
2023/12/02 09:29:07;;;;;;;113.70;65.47;;;;;;;8.92;100.00;97482.69;5053182;28;20226;-59
2023/12/02 09:31:32;;;;;;;139.07;77.68;;;;;;;8.70;100.00;97444.03;5052866;28;20554;-59
2023/12/02 09:34:02;;;;;;;108.25;63.53;;;;;;;8.78;100.00;97446.00;5053095;28;20261;-59
2023/12/02 09:36:34;;;;;;;67.07;40.25;;;;;;;9.27;100.00;97513.53;5052971;28;20174;-58
2023/12/02 09:39:19;;;;;;;66.45;39.28;;;;;;;9.28;100.00;97513.44;5053116;28;20224;-58
2023/12/02 09:41:49;;;;;;;64.05;40.97;;;;;;;8.79;100.00;97406.41;5052854;28;20556;-58
2023/12/02 09:44:21;;;;;;;74.50;44.15;;;;;;;9.36;100.00;97516.22;5052777;28;20182;-58
2023/12/02 09:46:54;;;;;;;73.55;42.55;;;;;;;9.15;100.00;97471.41;5052784;28;20181;-58
2023/12/02 09:49:30;;;;;;;68.55;43.20;;;;;;;9.44;100.00;97507.88;5052700;28;20190;-58
2023/12/02 09:52:20;;;;;;;77.13;48.15;;;;;;;9.46;100.00;97509.41;5052689;28;20493;-58
2023/12/02 09:55:03;;;;;;;90.70;48.78;;;;;;;9.51;100.00;97502.13;5052374;28;20670;-58
2023/12/02 09:57:39;;;;;;;77.47;47.25;;;;;;;9.29;100.00;97467.78;5052456;28;20182;-58
2023/12/02 10:00:21;;;;;;;76.88;46.33;;;;;;;9.58;100.00;97511.03;5052105;28;20647;-58
2023/12/02 10:03:13;;;;;;;71.38;43.83;;;;;;;9.58;100.00;97506.66;5052480;28;20178;-58
2023/12/02 10:06:19;;;;;;;72.00;45.42;;;;;;;9.57;100.00;97490.47;5052663;28;20178;-58
2023/12/02 10:09:07;;;;;;;73.40;48.42;;;;;;;9.57;100.00;97477.56;5068196;28;20632;-59
2023/12/02 10:11:53;;;;;;;81.68;50.65;;;;;;;9.26;100.00;97404.31;5048843;28;20704;-58
2023/12/02 10:14:22;;;;;;;85.78;51.63;;;;;;;9.26;100.00;97395.75;5009921;28;20193;-59
2023/12/02 10:16:52;;;;;;;83.32;51.80;;;;;;;9.36;100.00;97415.53;5009975;28;20187;-59
2023/12/02 10:19:29;;;;;;;85.93;52.45;;;;;;;9.61;100.00;97432.50;5009782;28;20345;-59
2023/12/02 10:21:59;;;;;;;102.78;56.83;;;;;;;9.67;100.00;97447.50;5010282;28;20269;-58
2023/12/02 10:24:45;;;;;;;86.57;52.88;;;;;;;9.44;100.00;97408.00;5009777;28;20185;-59
2023/12/02 10:27:16;;;;;;;89.55;54.55;;;;;;;9.75;100.00;97451.09;5009862;28;20191;-58
2023/12/02 10:29:58;;;;;;;97.78;55.65;;;;;;;9.28;100.00;97373.22;5009764;28;20187;-58
2023/12/02 10:32:33;;;;;;;97.20;55.05;;;;;;;9.77;100.00;97444.03;5009705;28;20187;-57
2023/12/02 10:35:18;;;;;;;100.65;58.33;;;;;;;9.41;100.00;97374.69;5009624;28;20261;-58
2023/12/02 10:37:44;;;;;;;99.60;56.80;;;;;;;9.65;100.00;97414.03;5009636;28;20195;-58
2023/12/02 10:40:12;;;;;;;92.65;55.50;;;;;;;9.91;100.00;97444.56;4996335;28;20281;-58
2023/12/02 10:42:57;;;;;;;91.28;58.20;;;;;;;9.46;100.00;97359.66;5000397;28;20605;-58
2023/12/02 10:45:25;;;;;;;86.90;55.50;;;;;;;10.02;100.00;97438.53;5031107;28;20186;-59
2023/12/02 10:47:53;;;;;;;96.32;57.55;;;;;;;10.00;100.00;97417.16;5051827;28;20184;-58
2023/12/02 10:50:22;;;;;;;91.63;54.85;;;;;;;10.10;100.00;97407.75;5050579;28;20670;-58
2023/12/02 10:53:03;;;;;;;87.22;54.80;;;;;;;10.07;100.00;97374.41;5040686;28;20257;-60
2023/12/02 10:55:31;;;;;;;100.32;56.50;;;;;;;10.08;100.00;97357.94;5051205;28;20201;-60
2023/12/02 10:57:59;;;;;;;105.18;58.47;;;;;;;10.24;100.00;97372.06;5051367;28;20225;-60
2023/12/02 11:00:29;;;;;;;116.05;69.65;;;;;;;10.53;100.00;97408.38;5051266;28;20204;-60
2023/12/02 11:03:05;;;;;;;130.55;78.07;;;;;;;10.57;100.00;97387.31;5051354;28;20189;-60
2023/12/02 11:05:43;;;;;;;140.30;81.15;;;;;;;10.78;100.00;97392.41;5051455;28;20170;-60
2023/12/02 11:08:19;;;;;;;132.63;76.30;;;;;;;10.40;100.00;97317.28;5051430;28;20177;-60
2023/12/02 11:10:51;;;;;;;125.95;75.88;;;;;;;10.38;100.00;97286.38;5051309;28;20184;-60
2023/12/02 11:13:23;;;;;;;122.50;73.80;;;;;;;11.00;100.00;97374.94;5051301;28;20721;-60
2023/12/02 11:15:54;;;;;;;97.63;60.78;;;;;;;11.23;100.00;97391.03;5051407;28;20185;-60